Gdf Suez North Sea — HPSQ — position and weather

sailwx.info

Track history (hours):
 
Tides and Currents Weather Stations Pressure Air Temp Water Temp Dewpoint Dewpoint Depression Visibility Wind Speed Wind Dir Waves Ship Positions

Gdf Suez North Sea

Last reported at 2017-Nov-02 14:45 UTC. Time now 2017-Dec-17 19:47 UTC.
Position N 29°59' W 093°52'.
Warning: this ship's position is 45 days out of date.

Length 190 m; draft 11.9 m.

Type: Cargo ship. MMSI: 373341000.

Date/timePositionNaut miles runAvg speedWind from/ knotsBaromVisibWave heightAir tempDewpointWater temp
2017-Nov-02 14:45N 29°59' W 093°52'2 4.2
2017-Nov-02 14:15N 29°59' W 093°54'2 2.8
2017-Nov-02 13:35N 29°59' W 093°52'1 4.9
2017-Nov-02 13:26N 29°59' W 093°52'6 4.9
2017-Nov-02 12:13N 29°53' W 093°55'2 3.5
2017-Nov-02 11:36N 29°52' W 093°56'0 0.0
2017-Nov-01 01:13N 29°52' W 093°56'0 0.0
2017-Nov-01 00:58N 29°52' W 093°56'0 0.0
2017-Oct-31 15:13N 29°52' W 093°56'0 0.0
2017-Oct-31 14:49N 29°52' W 093°56'0 0.0
2017-Oct-31 14:28N 29°52' W 093°56'0 0.0
2017-Oct-31 13:58N 29°52' W 093°56'0 0.0
2017-Oct-31 13:25N 29°52' W 093°56'0 0.0
2017-Oct-31 12:55N 29°52' W 093°56'0 0.0
2017-Oct-31 12:25N 29°52' W 093°56'0 0.0
2017-Oct-31 11:55N 29°52' W 093°56'0 0.0
2017-Oct-31 11:28N 29°52' W 093°56'0 0.0
2017-Oct-31 10:58N 29°52' W 093°56'0 0.0
2017-Oct-29 15:04N 29°52' W 093°56'0 0.0
2017-Oct-29 14:52N 29°52' W 093°56'0 0.0
2017-Oct-29 14:28N 29°52' W 093°56'0 0.0
2017-Oct-29 13:58N 29°52' W 093°56'0 0.0
2017-Oct-29 12:31N 29°52' W 093°56'0 0.1
2017-Oct-29 12:28N 29°52' W 093°56'0 0.0
2017-Oct-29 10:52N 29°52' W 093°56'0 0.0
2017-Oct-29 09:52N 29°52' W 093°56'0 0.0
2017-Oct-29 09:28N 29°52' W 093°56'0 0.0
2017-Oct-29 08:58N 29°52' W 093°56'0 0.0
2017-Oct-29 08:28N 29°52' W 093°56'0 0.0
2017-Oct-29 07:58N 29°52' W 093°56'0 0.0
2017-Oct-29 07:22N 29°52' W 093°56'0 0.0
2017-Oct-29 06:58N 29°52' W 093°56'0 0.0
2017-Oct-29 06:28N 29°52' W 093°56'0 0.0
2017-Oct-29 05:58N 29°52' W 093°56'0 0.0
2017-Oct-29 05:28N 29°52' W 093°56'0 0.0
2017-Oct-29 04:58N 29°52' W 093°56'0 0.0
2017-Oct-29 04:19N 29°52' W 093°56'0 0.0
2017-Oct-29 03:49N 29°52' W 093°56'0 0.0
2017-Oct-27 14:37N 29°52' W 093°56'0 0.1
2017-Oct-27 14:28N 29°52' W 093°56'0 0.0
2017-Oct-26 14:55N 29°52' W 093°56'0 0.0
2017-Oct-26 14:28N 29°52' W 093°56'0 0.0
2017-Oct-26 13:55N 29°52' W 093°56'0 0.0
2017-Oct-26 13:22N 29°52' W 093°56'0 0.0
2017-Oct-26 11:34N 29°52' W 093°56'0 0.1
2017-Oct-26 11:25N 29°52' W 093°56'0 0.0
2017-Oct-26 10:13N 29°52' W 093°56'0 0.3
2017-Oct-26 10:00N 29°52' W 093°56'3 4.1
2017-Oct-26 09:16N 29°49' W 093°57'3 5.8
2017-Oct-26 08:49N 29°46' W 093°56'3 0.8
2017-Oct-26 04:56N 29°49' W 093°58'2 5.1
2017-Oct-26 04:30N 29°51' W 093°57'0 0.7
2017-Oct-26 04:00N 29°52' W 093°56'0 0.0
2017-Oct-25 14:44N 29°52' W 093°56'0 0.0
2017-Oct-25 14:29N 29°52' W 093°56'0 0.0
2017-Oct-25 13:02N 29°52' W 093°56'0 0.0
2017-Oct-25 12:50N 29°52' W 093°56'0 0.0
2017-Oct-25 09:20N 29°52' W 093°56'0 0.0
2017-Oct-25 08:56N 29°52' W 093°56'6 0.8
2017-Oct-25 01:46N 29°56' W 093°52'0 0.0
2017-Oct-24 08:04N 29°56' W 093°52'0 0.0
2017-Oct-24 07:58N 29°56' W 093°52'0 0.0
2017-Oct-24 04:43N 29°56' W 093°52'0 0.0
2017-Oct-24 04:28N 29°56' W 093°52'0 0.0
2017-Oct-24 03:40N 29°56' W 093°52'  
Track history (hours):
 
Tides and Currents Weather Stations Pressure Air Temp Water Temp Dewpoint Dewpoint Depression Visibility Wind Speed Wind Dir Waves Ship Positions

Gdf Suez North Sea

Last reported at 2017-Nov-02 14:45 UTC. Time now 2017-Dec-17 19:47 UTC.
Position N 29°59' W 093°52'.
Warning: this ship's position is 45 days out of date.

Length 190 m; draft 11.9 m.

Type: Cargo ship. MMSI: 373341000.

Date/timePositionNaut miles runAvg speedWind from/ knotsBaromVisibWave heightAir tempDewpointWater temp
2017-Nov-02 14:45N 29°59' W 093°52'2 4.2
2017-Nov-02 14:15N 29°59' W 093°54'2 2.8
2017-Nov-02 13:35N 29°59' W 093°52'1 4.9
2017-Nov-02 13:26N 29°59' W 093°52'6 4.9
2017-Nov-02 12:13N 29°53' W 093°55'2 3.5
2017-Nov-02 11:36N 29°52' W 093°56'0 0.0
2017-Nov-01 01:13N 29°52' W 093°56'0 0.0
2017-Nov-01 00:58N 29°52' W 093°56'0 0.0
2017-Oct-31 15:13N 29°52' W 093°56'0 0.0
2017-Oct-31 14:49N 29°52' W 093°56'0 0.0
2017-Oct-31 14:28N 29°52' W 093°56'0 0.0
2017-Oct-31 13:58N 29°52' W 093°56'0 0.0
2017-Oct-31 13:25N 29°52' W 093°56'0 0.0
2017-Oct-31 12:55N 29°52' W 093°56'0 0.0
2017-Oct-31 12:25N 29°52' W 093°56'0 0.0
2017-Oct-31 11:55N 29°52' W 093°56'0 0.0
2017-Oct-31 11:28N 29°52' W 093°56'0 0.0
2017-Oct-31 10:58N 29°52' W 093°56'0 0.0
2017-Oct-29 15:04N 29°52' W 093°56'0 0.0
2017-Oct-29 14:52N 29°52' W 093°56'0 0.0
2017-Oct-29 14:28N 29°52' W 093°56'0 0.0
2017-Oct-29 13:58N 29°52' W 093°56'0 0.0
2017-Oct-29 12:31N 29°52' W 093°56'0 0.1
2017-Oct-29 12:28N 29°52' W 093°56'0 0.0
2017-Oct-29 10:52N 29°52' W 093°56'0 0.0
2017-Oct-29 09:52N 29°52' W 093°56'0 0.0
2017-Oct-29 09:28N 29°52' W 093°56'0 0.0
2017-Oct-29 08:58N 29°52' W 093°56'0 0.0
2017-Oct-29 08:28N 29°52' W 093°56'0 0.0
2017-Oct-29 07:58N 29°52' W 093°56'0 0.0
2017-Oct-29 07:22N 29°52' W 093°56'0 0.0
2017-Oct-29 06:58N 29°52' W 093°56'0 0.0
2017-Oct-29 06:28N 29°52' W 093°56'0 0.0
2017-Oct-29 05:58N 29°52' W 093°56'0 0.0
2017-Oct-29 05:28N 29°52' W 093°56'0 0.0
2017-Oct-29 04:58N 29°52' W 093°56'0 0.0
2017-Oct-29 04:19N 29°52' W 093°56'0 0.0
2017-Oct-29 03:49N 29°52' W 093°56'0 0.0
2017-Oct-27 14:37N 29°52' W 093°56'0 0.1
2017-Oct-27 14:28N 29°52' W 093°56'0 0.0
2017-Oct-26 14:55N 29°52' W 093°56'0 0.0
2017-Oct-26 14:28N 29°52' W 093°56'0 0.0
2017-Oct-26 13:55N 29°52' W 093°56'0 0.0
2017-Oct-26 13:22N 29°52' W 093°56'0 0.0
2017-Oct-26 11:34N 29°52' W 093°56'0 0.1
2017-Oct-26 11:25N 29°52' W 093°56'0 0.0
2017-Oct-26 10:13N 29°52' W 093°56'0 0.3
2017-Oct-26 10:00N 29°52' W 093°56'3 4.1
2017-Oct-26 09:16N 29°49' W 093°57'3 5.8
2017-Oct-26 08:49N 29°46' W 093°56'3 0.8
2017-Oct-26 04:56N 29°49' W 093°58'2 5.1
2017-Oct-26 04:30N 29°51' W 093°57'0 0.7
2017-Oct-26 04:00N 29°52' W 093°56'0 0.0
2017-Oct-25 14:44N 29°52' W 093°56'0 0.0
2017-Oct-25 14:29N 29°52' W 093°56'0 0.0
2017-Oct-25 13:02N 29°52' W 093°56'0 0.0
2017-Oct-25 12:50N 29°52' W 093°56'0 0.0
2017-Oct-25 09:20N 29°52' W 093°56'0 0.0
2017-Oct-25 08:56N 29°52' W 093°56'6 0.8
2017-Oct-25 01:46N 29°56' W 093°52'0 0.0
2017-Oct-24 08:04N 29°56' W 093°52'0 0.0
2017-Oct-24 07:58N 29°56' W 093°52'0 0.0
2017-Oct-24 04:43N 29°56' W 093°52'0 0.0
2017-Oct-24 04:28N 29°56' W 093°52'0 0.0
2017-Oct-24 03:40N 29°56' W 093°52'  

Dump ship's entire track history